sensor_id;sensor_type;location;lat;lon;timestamp;temperature;humidity
3053;DHT22;1536;51.098;6.414;2022-08-16T00:01:27;22.60;97.30
3053;DHT22;1536;51.098;6.414;2022-08-16T00:03:54;22.60;97.30
3053;DHT22;1536;51.098;6.414;2022-08-16T00:06:21;22.50;97.40
3053;DHT22;1536;51.098;6.414;2022-08-16T00:08:49;22.50;97.50
3053;DHT22;1536;51.098;6.414;2022-08-16T00:11:17;22.50;97.40
3053;DHT22;1536;51.098;6.414;2022-08-16T00:13:44;22.50;97.50
3053;DHT22;1536;51.098;6.414;2022-08-16T00:16:11;22.40;97.60
3053;DHT22;1536;51.098;6.414;2022-08-16T00:18:37;22.40;97.60
3053;DHT22;1536;51.098;6.414;2022-08-16T00:21:04;22.40;97.80
3053;DHT22;1536;51.098;6.414;2022-08-16T00:23:31;22.30;97.80
3053;DHT22;1536;51.098;6.414;2022-08-16T00:25:59;22.30;97.80
3053;DHT22;1536;51.098;6.414;2022-08-16T00:28:26;22.30;98.20
3053;DHT22;1536;51.098;6.414;2022-08-16T00:30:53;22.20;97.90
3053;DHT22;1536;51.098;6.414;2022-08-16T00:33:19;22.20;98.00
3053;DHT22;1536;51.098;6.414;2022-08-16T00:35:46;22.20;98.20
3053;DHT22;1536;51.098;6.414;2022-08-16T00:38:13;22.10;98.20
3053;DHT22;1536;51.098;6.414;2022-08-16T00:40:43;22.10;98.30
3053;DHT22;1536;51.098;6.414;2022-08-16T00:43:15;22.10;98.40
3053;DHT22;1536;51.098;6.414;2022-08-16T00:45:49;22.00;98.30
3053;DHT22;1536;51.098;6.414;2022-08-16T00:48:17;22.00;98.40
3053;DHT22;1536;51.098;6.414;2022-08-16T00:50:45;22.00;98.50
3053;DHT22;1536;51.098;6.414;2022-08-16T00:53:14;21.90;98.40
3053;DHT22;1536;51.098;6.414;2022-08-16T00:55:44;21.90;98.40
3053;DHT22;1536;51.098;6.414;2022-08-16T00:58:14;21.90;98.40
3053;DHT22;1536;51.098;6.414;2022-08-16T01:00:42;21.90;98.30
3053;DHT22;1536;51.098;6.414;2022-08-16T01:03:11;21.90;98.30
3053;DHT22;1536;51.098;6.414;2022-08-16T01:05:39;21.80;98.20
3053;DHT22;1536;51.098;6.414;2022-08-16T01:08:07;21.90;98.20
3053;DHT22;1536;51.098;6.414;2022-08-16T01:10:35;21.90;98.10
3053;DHT22;1536;51.098;6.414;2022-08-16T01:13:05;21.90;98.10
3053;DHT22;1536;51.098;6.414;2022-08-16T01:15:35;21.90;98.00
3053;DHT22;1536;51.098;6.414;2022-08-16T01:18:04;21.90;98.10
3053;DHT22;1536;51.098;6.414;2022-08-16T01:20:34;21.90;98.10
3053;DHT22;1536;51.098;6.414;2022-08-16T01:23:09;21.90;98.20
3053;DHT22;1536;51.098;6.414;2022-08-16T01:25:41;21.90;98.60
3053;DHT22;1536;51.098;6.414;2022-08-16T01:28:12;21.90;98.10
3053;DHT22;1536;51.098;6.414;2022-08-16T01:30:43;21.90;98.00
3053;DHT22;1536;51.098;6.414;2022-08-16T01:33:11;21.90;97.80
3053;DHT22;1536;51.098;6.414;2022-08-16T01:35:41;22.00;97.80
3053;DHT22;1536;51.098;6.414;2022-08-16T01:38:19;22.00;97.70
3053;DHT22;1536;51.098;6.414;2022-08-16T01:40:49;22.00;97.80
3053;DHT22;1536;51.098;6.414;2022-08-16T01:43:17;22.00;97.70
3053;DHT22;1536;51.098;6.414;2022-08-16T01:45:44;22.00;97.70
3053;DHT22;1536;51.098;6.414;2022-08-16T01:48:11;22.00;97.60
3053;DHT22;1536;51.098;6.414;2022-08-16T01:50:40;22.00;97.50
3053;DHT22;1536;51.098;6.414;2022-08-16T01:53:08;22.00;97.50
3053;DHT22;1536;51.098;6.414;2022-08-16T01:55:35;22.00;97.60
3053;DHT22;1536;51.098;6.414;2022-08-16T01:58:04;22.00;97.70
3053;DHT22;1536;51.098;6.414;2022-08-16T02:00:31;21.90;97.80
3053;DHT22;1536;51.098;6.414;2022-08-16T02:02:58;21.90;97.80
3053;DHT22;1536;51.098;6.414;2022-08-16T02:05:25;21.80;97.90
3053;DHT22;1536;51.098;6.414;2022-08-16T02:07:52;21.80;98.00
3053;DHT22;1536;51.098;6.414;2022-08-16T02:10:19;21.80;98.10
3053;DHT22;1536;51.098;6.414;2022-08-16T02:12:46;21.70;98.10
3053;DHT22;1536;51.098;6.414;2022-08-16T02:15:16;21.70;98.20
3053;DHT22;1536;51.098;6.414;2022-08-16T02:17:43;21.70;98.20
3053;DHT22;1536;51.098;6.414;2022-08-16T02:20:11;21.70;98.20
3053;DHT22;1536;51.098;6.414;2022-08-16T02:22:38;21.70;98.00
3053;DHT22;1536;51.098;6.414;2022-08-16T02:25:18;21.70;98.00
3053;DHT22;1536;51.098;6.414;2022-08-16T02:27:45;21.70;98.00
3053;DHT22;1536;51.098;6.414;2022-08-16T02:30:17;21.70;98.20
3053;DHT22;1536;51.098;6.414;2022-08-16T02:32:46;21.70;98.50
3053;DHT22;1536;51.098;6.414;2022-08-16T02:35:13;21.70;98.20
3053;DHT22;1536;51.098;6.414;2022-08-16T02:37:40;21.70;98.20
3053;DHT22;1536;51.098;6.414;2022-08-16T02:40:07;21.60;98.20
3053;DHT22;1536;51.098;6.414;2022-08-16T02:42:34;21.60;98.10
3053;DHT22;1536;51.098;6.414;2022-08-16T02:45:03;21.70;98.20
3053;DHT22;1536;51.098;6.414;2022-08-16T02:47:31;21.70;98.10
3053;DHT22;1536;51.098;6.414;2022-08-16T02:49:58;21.60;98.30
3053;DHT22;1536;51.098;6.414;2022-08-16T02:52:24;21.60;98.30
3053;DHT22;1536;51.098;6.414;2022-08-16T02:54:52;21.60;98.40
3053;DHT22;1536;51.098;6.414;2022-08-16T02:57:19;21.60;98.40
3053;DHT22;1536;51.098;6.414;2022-08-16T02:59:47;21.60;98.30
3053;DHT22;1536;51.098;6.414;2022-08-16T03:02:14;21.60;98.20
3053;DHT22;1536;51.098;6.414;2022-08-16T03:04:42;21.60;98.10
3053;DHT22;1536;51.098;6.414;2022-08-16T03:07:10;21.60;98.10
3053;DHT22;1536;51.098;6.414;2022-08-16T03:09:39;21.70;98.20
3053;DHT22;1536;51.098;6.414;2022-08-16T03:12:06;21.70;98.10
3053;DHT22;1536;51.098;6.414;2022-08-16T03:14:33;21.70;98.00
3053;DHT22;1536;51.098;6.414;2022-08-16T03:17:00;21.70;97.90
3053;DHT22;1536;51.098;6.414;2022-08-16T03:19:28;21.70;97.90
3053;DHT22;1536;51.098;6.414;2022-08-16T03:21:57;21.70;97.90
3053;DHT22;1536;51.098;6.414;2022-08-16T03:24:23;21.70;97.90
3053;DHT22;1536;51.098;6.414;2022-08-16T03:26:53;21.70;97.90
3053;DHT22;1536;51.098;6.414;2022-08-16T03:29:20;21.80;98.00
3053;DHT22;1536;51.098;6.414;2022-08-16T03:31:47;21.80;97.90
3053;DHT22;1536;51.098;6.414;2022-08-16T03:34:14;21.80;97.90
3053;DHT22;1536;51.098;6.414;2022-08-16T03:36:41;21.80;97.80
3053;DHT22;1536;51.098;6.414;2022-08-16T03:39:09;21.80;97.80
3053;DHT22;1536;51.098;6.414;2022-08-16T03:41:36;21.80;97.80
3053;DHT22;1536;51.098;6.414;2022-08-16T03:44:03;21.80;97.80
3053;DHT22;1536;51.098;6.414;2022-08-16T03:46:31;21.80;97.80
3053;DHT22;1536;51.098;6.414;2022-08-16T03:48:59;21.80;97.80
3053;DHT22;1536;51.098;6.414;2022-08-16T03:51:25;21.80;97.90
3053;DHT22;1536;51.098;6.414;2022-08-16T03:53:53;21.80;97.90
3053;DHT22;1536;51.098;6.414;2022-08-16T03:56:21;21.80;97.80
3053;DHT22;1536;51.098;6.414;2022-08-16T03:58:48;21.80;97.90
3053;DHT22;1536;51.098;6.414;2022-08-16T04:01:15;21.80;97.90
3053;DHT22;1536;51.098;6.414;2022-08-16T04:03:42;21.80;98.00
3053;DHT22;1536;51.098;6.414;2022-08-16T04:06:08;21.80;98.10
3053;DHT22;1536;51.098;6.414;2022-08-16T04:08:35;21.80;98.10
3053;DHT22;1536;51.098;6.414;2022-08-16T04:11:02;21.80;98.20
3053;DHT22;1536;51.098;6.414;2022-08-16T04:13:30;21.70;98.30
3053;DHT22;1536;51.098;6.414;2022-08-16T04:15:57;21.70;98.50
3053;DHT22;1536;51.098;6.414;2022-08-16T04:18:24;21.60;98.50
3053;DHT22;1536;51.098;6.414;2022-08-16T04:20:51;21.60;98.60
3053;DHT22;1536;51.098;6.414;2022-08-16T04:23:17;21.50;98.70
3053;DHT22;1536;51.098;6.414;2022-08-16T04:25:44;21.50;99.10
3053;DHT22;1536;51.098;6.414;2022-08-16T04:28:12;21.40;98.70
3053;DHT22;1536;51.098;6.414;2022-08-16T04:30:40;21.40;98.80
3053;DHT22;1536;51.098;6.414;2022-08-16T04:33:07;21.40;98.90
3053;DHT22;1536;51.098;6.414;2022-08-16T04:35:34;21.30;98.90
3053;DHT22;1536;51.098;6.414;2022-08-16T04:38:02;21.30;98.90
3053;DHT22;1536;51.098;6.414;2022-08-16T04:40:30;21.30;99.10
3053;DHT22;1536;51.098;6.414;2022-08-16T04:42:57;21.20;99.30
3053;DHT22;1536;51.098;6.414;2022-08-16T04:45:25;21.20;99.40
3053;DHT22;1536;51.098;6.414;2022-08-16T04:47:53;21.10;99.50
3053;DHT22;1536;51.098;6.414;2022-08-16T04:50:22;21.10;99.50
3053;DHT22;1536;51.098;6.414;2022-08-16T04:52:51;21.20;99.60
3053;DHT22;1536;51.098;6.414;2022-08-16T04:55:20;21.10;99.70
3053;DHT22;1536;51.098;6.414;2022-08-16T04:57:51;21.20;99.90
3053;DHT22;1536;51.098;6.414;2022-08-16T05:00:20;21.20;99.90
3053;DHT22;1536;51.098;6.414;2022-08-16T05:02:49;21.20;99.90
3053;DHT22;1536;51.098;6.414;2022-08-16T05:05:17;21.20;99.90
3053;DHT22;1536;51.098;6.414;2022-08-16T05:07:44;21.20;99.90
3053;DHT22;1536;51.098;6.414;2022-08-16T05:10:11;21.10;99.90
3053;DHT22;1536;51.098;6.414;2022-08-16T05:12:38;21.20;99.90
3053;DHT22;1536;51.098;6.414;2022-08-16T05:15:07;21.20;99.90
3053;DHT22;1536;51.098;6.414;2022-08-16T05:17:35;21.20;99.90
3053;DHT22;1536;51.098;6.414;2022-08-16T05:20:02;21.20;99.90
3053;DHT22;1536;51.098;6.414;2022-08-16T05:22:31;21.20;99.90
3053;DHT22;1536;51.098;6.414;2022-08-16T05:25:00;21.30;99.90
3053;DHT22;1536;51.098;6.414;2022-08-16T05:30:10;21.30;99.90
3053;DHT22;1536;51.098;6.414;2022-08-16T05:32:39;21.30;99.90
3053;DHT22;1536;51.098;6.414;2022-08-16T05:35:09;21.40;99.90
3053;DHT22;1536;51.098;6.414;2022-08-16T05:37:38;21.50;99.90
3053;DHT22;1536;51.098;6.414;2022-08-16T05:40:07;21.50;99.90
3053;DHT22;1536;51.098;6.414;2022-08-16T05:42:35;21.50;99.90
3053;DHT22;1536;51.098;6.414;2022-08-16T05:45:02;21.60;99.90
3053;DHT22;1536;51.098;6.414;2022-08-16T05:47:29;21.60;99.90
3053;DHT22;1536;51.098;6.414;2022-08-16T05:49:56;21.70;99.90
3053;DHT22;1536;51.098;6.414;2022-08-16T05:52:23;21.70;99.90
3053;DHT22;1536;51.098;6.414;2022-08-16T05:54:51;21.80;99.90
3053;DHT22;1536;51.098;6.414;2022-08-16T05:57:18;21.80;99.90
3053;DHT22;1536;51.098;6.414;2022-08-16T05:59:45;21.80;99.90
3053;DHT22;1536;51.098;6.414;2022-08-16T06:02:13;21.80;99.90
3053;DHT22;1536;51.098;6.414;2022-08-16T06:04:40;21.90;99.90
3053;DHT22;1536;51.098;6.414;2022-08-16T06:07:07;21.90;99.90
3053;DHT22;1536;51.098;6.414;2022-08-16T06:09:34;22.00;99.90
3053;DHT22;1536;51.098;6.414;2022-08-16T06:12:03;22.00;99.90
3053;DHT22;1536;51.098;6.414;2022-08-16T06:14:30;22.00;99.90
3053;DHT22;1536;51.098;6.414;2022-08-16T06:16:57;22.10;99.90
3053;DHT22;1536;51.098;6.414;2022-08-16T06:19:24;22.20;99.90
3053;DHT22;1536;51.098;6.414;2022-08-16T06:21:50;22.10;99.90
3053;DHT22;1536;51.098;6.414;2022-08-16T06:24:17;22.20;99.90
3053;DHT22;1536;51.098;6.414;2022-08-16T06:26:44;22.20;99.90
3053;DHT22;1536;51.098;6.414;2022-08-16T06:29:12;22.30;99.90
3053;DHT22;1536;51.098;6.414;2022-08-16T06:31:39;22.40;99.90
3053;DHT22;1536;51.098;6.414;2022-08-16T06:34:06;22.40;99.90
3053;DHT22;1536;51.098;6.414;2022-08-16T06:36:32;22.50;99.90
3053;DHT22;1536;51.098;6.414;2022-08-16T06:38:59;22.50;99.90
3053;DHT22;1536;51.098;6.414;2022-08-16T06:41:26;22.60;99.90
3053;DHT22;1536;51.098;6.414;2022-08-16T06:43:53;22.60;99.90
3053;DHT22;1536;51.098;6.414;2022-08-16T06:46:25;22.60;99.90
3053;DHT22;1536;51.098;6.414;2022-08-16T06:48:52;22.70;99.90
3053;DHT22;1536;51.098;6.414;2022-08-16T06:51:19;22.70;99.90
3053;DHT22;1536;51.098;6.414;2022-08-16T06:53:45;22.80;99.90
3053;DHT22;1536;51.098;6.414;2022-08-16T06:56:12;22.80;99.70
3053;DHT22;1536;51.098;6.414;2022-08-16T06:58:39;22.90;99.70
3053;DHT22;1536;51.098;6.414;2022-08-16T07:01:06;23.00;99.60
3053;DHT22;1536;51.098;6.414;2022-08-16T07:03:34;23.00;99.60
3053;DHT22;1536;51.098;6.414;2022-08-16T07:06:01;23.10;99.60
3053;DHT22;1536;51.098;6.414;2022-08-16T07:08:28;23.10;99.40
3053;DHT22;1536;51.098;6.414;2022-08-16T07:10:56;23.20;99.40
3053;DHT22;1536;51.098;6.414;2022-08-16T07:13:25;23.30;99.30
3053;DHT22;1536;51.098;6.414;2022-08-16T07:15:51;23.30;99.30
3053;DHT22;1536;51.098;6.414;2022-08-16T07:18:19;23.40;99.20
3053;DHT22;1536;51.098;6.414;2022-08-16T07:20:47;23.50;99.30
3053;DHT22;1536;51.098;6.414;2022-08-16T07:23:16;23.50;99.20
3053;DHT22;1536;51.098;6.414;2022-08-16T07:25:43;23.60;99.20
3053;DHT22;1536;51.098;6.414;2022-08-16T07:28:12;23.60;99.00
3053;DHT22;1536;51.098;6.414;2022-08-16T07:30:40;23.70;99.00
3053;DHT22;1536;51.098;6.414;2022-08-16T07:33:07;23.70;98.90
3053;DHT22;1536;51.098;6.414;2022-08-16T07:35:35;23.80;98.70
3053;DHT22;1536;51.098;6.414;2022-08-16T07:38:04;23.80;98.80
3053;DHT22;1536;51.098;6.414;2022-08-16T07:40:32;23.90;98.80
3053;DHT22;1536;51.098;6.414;2022-08-16T07:42:59;24.00;99.00
3053;DHT22;1536;51.098;6.414;2022-08-16T07:45:26;24.00;98.50
3053;DHT22;1536;51.098;6.414;2022-08-16T07:47:53;24.10;98.50
3053;DHT22;1536;51.098;6.414;2022-08-16T07:50:20;24.10;98.50
3053;DHT22;1536;51.098;6.414;2022-08-16T07:52:47;24.20;98.50
3053;DHT22;1536;51.098;6.414;2022-08-16T07:55:17;24.20;98.30
3053;DHT22;1536;51.098;6.414;2022-08-16T07:57:44;24.30;98.20
3053;DHT22;1536;51.098;6.414;2022-08-16T08:00:12;24.30;98.10
3053;DHT22;1536;51.098;6.414;2022-08-16T08:02:39;24.40;98.10
3053;DHT22;1536;51.098;6.414;2022-08-16T08:05:06;24.50;98.10
3053;DHT22;1536;51.098;6.414;2022-08-16T08:07:34;24.50;98.00
3053;DHT22;1536;51.098;6.414;2022-08-16T08:10:00;24.60;98.00
3053;DHT22;1536;51.098;6.414;2022-08-16T08:12:29;24.60;97.90
3053;DHT22;1536;51.098;6.414;2022-08-16T08:14:55;24.70;97.80
3053;DHT22;1536;51.098;6.414;2022-08-16T08:17:22;24.80;97.80
3053;DHT22;1536;51.098;6.414;2022-08-16T08:19:49;24.80;97.80
3053;DHT22;1536;51.098;6.414;2022-08-16T08:22:16;24.90;97.70
3053;DHT22;1536;51.098;6.414;2022-08-16T08:24:43;25.00;97.50
3053;DHT22;1536;51.098;6.414;2022-08-16T08:27:11;25.00;97.50
3053;DHT22;1536;51.098;6.414;2022-08-16T08:29:40;25.20;97.50
3053;DHT22;1536;51.098;6.414;2022-08-16T08:32:08;25.20;97.40
3053;DHT22;1536;51.098;6.414;2022-08-16T08:34:35;25.30;97.10
3053;DHT22;1536;51.098;6.414;2022-08-16T08:37:02;25.40;97.00
3053;DHT22;1536;51.098;6.414;2022-08-16T08:39:28;25.50;97.10
3053;DHT22;1536;51.098;6.414;2022-08-16T08:41:55;25.70;97.20
3053;DHT22;1536;51.098;6.414;2022-08-16T08:44:22;25.80;97.10
3053;DHT22;1536;51.098;6.414;2022-08-16T08:46:50;25.90;96.70
3053;DHT22;1536;51.098;6.414;2022-08-16T08:49:21;26.00;96.30
3053;DHT22;1536;51.098;6.414;2022-08-16T08:51:48;26.10;96.20
3053;DHT22;1536;51.098;6.414;2022-08-16T08:54:15;26.10;96.10
3053;DHT22;1536;51.098;6.414;2022-08-16T08:56:42;26.20;96.00
3053;DHT22;1536;51.098;6.414;2022-08-16T08:59:10;26.30;95.80
3053;DHT22;1536;51.098;6.414;2022-08-16T09:01:39;26.40;95.50
3053;DHT22;1536;51.098;6.414;2022-08-16T09:04:08;26.50;95.60
3053;DHT22;1536;51.098;6.414;2022-08-16T09:06:36;26.50;95.40
3053;DHT22;1536;51.098;6.414;2022-08-16T09:09:04;26.60;95.40
3053;DHT22;1536;51.098;6.414;2022-08-16T09:11:32;26.70;95.30
3053;DHT22;1536;51.098;6.414;2022-08-16T09:14:01;26.80;95.00
3053;DHT22;1536;51.098;6.414;2022-08-16T09:16:30;26.90;94.80
3053;DHT22;1536;51.098;6.414;2022-08-16T09:18:57;26.90;94.40
3053;DHT22;1536;51.098;6.414;2022-08-16T09:21:26;27.00;94.10
3053;DHT22;1536;51.098;6.414;2022-08-16T09:23:53;27.10;94.00
3053;DHT22;1536;51.098;6.414;2022-08-16T09:26:20;27.20;93.70
3053;DHT22;1536;51.098;6.414;2022-08-16T09:28:49;27.20;93.50
3053;DHT22;1536;51.098;6.414;2022-08-16T09:31:17;27.30;93.20
3053;DHT22;1536;51.098;6.414;2022-08-16T09:33:46;27.30;93.00
3053;DHT22;1536;51.098;6.414;2022-08-16T09:36:12;27.40;93.00
3053;DHT22;1536;51.098;6.414;2022-08-16T09:38:41;27.40;92.90
3053;DHT22;1536;51.098;6.414;2022-08-16T09:41:09;27.50;92.70
3053;DHT22;1536;51.098;6.414;2022-08-16T09:43:36;27.50;92.50
3053;DHT22;1536;51.098;6.414;2022-08-16T09:46:05;27.60;92.40
3053;DHT22;1536;51.098;6.414;2022-08-16T09:48:33;27.60;92.30
3053;DHT22;1536;51.098;6.414;2022-08-16T09:51:00;27.70;92.20
3053;DHT22;1536;51.098;6.414;2022-08-16T09:53:26;27.80;91.80
3053;DHT22;1536;51.098;6.414;2022-08-16T09:55:55;27.90;91.50
3053;DHT22;1536;51.098;6.414;2022-08-16T09:58:25;27.90;91.20
3053;DHT22;1536;51.098;6.414;2022-08-16T10:00:53;28.00;91.10
3053;DHT22;1536;51.098;6.414;2022-08-16T10:03:21;28.00;90.90
3053;DHT22;1536;51.098;6.414;2022-08-16T10:05:48;28.10;90.70
3053;DHT22;1536;51.098;6.414;2022-08-16T10:08:15;28.10;90.50
3053;DHT22;1536;51.098;6.414;2022-08-16T10:10:43;28.20;90.20
3053;DHT22;1536;51.098;6.414;2022-08-16T10:13:32;28.20;90.10
3053;DHT22;1536;51.098;6.414;2022-08-16T10:15:59;28.30;90.30
3053;DHT22;1536;51.098;6.414;2022-08-16T10:18:28;28.30;90.50
3053;DHT22;1536;51.098;6.414;2022-08-16T10:20:56;28.40;90.30
3053;DHT22;1536;51.098;6.414;2022-08-16T10:23:24;28.40;90.10
3053;DHT22;1536;51.098;6.414;2022-08-16T10:25:51;28.50;89.80
3053;DHT22;1536;51.098;6.414;2022-08-16T10:28:19;28.60;89.20
3053;DHT22;1536;51.098;6.414;2022-08-16T10:30:47;28.60;88.60
3053;DHT22;1536;51.098;6.414;2022-08-16T10:33:14;28.60;88.50
3053;DHT22;1536;51.098;6.414;2022-08-16T10:35:42;28.70;88.50
3053;DHT22;1536;51.098;6.414;2022-08-16T10:38:09;28.70;88.10
3053;DHT22;1536;51.098;6.414;2022-08-16T10:40:37;28.70;87.60
3053;DHT22;1536;51.098;6.414;2022-08-16T10:43:05;28.80;87.50
3053;DHT22;1536;51.098;6.414;2022-08-16T10:45:32;28.90;86.80
3053;DHT22;1536;51.098;6.414;2022-08-16T10:48:01;28.90;86.30
3053;DHT22;1536;51.098;6.414;2022-08-16T10:50:28;29.00;85.90
3053;DHT22;1536;51.098;6.414;2022-08-16T10:52:56;29.00;86.40
3053;DHT22;1536;51.098;6.414;2022-08-16T10:55:24;29.00;85.20
3053;DHT22;1536;51.098;6.414;2022-08-16T10:57:54;29.10;84.70
3053;DHT22;1536;51.098;6.414;2022-08-16T11:00:21;29.10;84.10
3053;DHT22;1536;51.098;6.414;2022-08-16T11:02:48;29.10;84.00
3053;DHT22;1536;51.098;6.414;2022-08-16T11:05:18;29.20;84.20
3053;DHT22;1536;51.098;6.414;2022-08-16T11:07:46;29.30;84.00
3053;DHT22;1536;51.098;6.414;2022-08-16T11:10:15;29.30;83.80
3053;DHT22;1536;51.098;6.414;2022-08-16T11:12:42;29.30;83.90
3053;DHT22;1536;51.098;6.414;2022-08-16T11:15:10;29.30;83.80
3053;DHT22;1536;51.098;6.414;2022-08-16T11:17:37;29.40;83.60
3053;DHT22;1536;51.098;6.414;2022-08-16T11:20:04;29.50;83.00
3053;DHT22;1536;51.098;6.414;2022-08-16T11:22:36;29.60;81.70
3053;DHT22;1536;51.098;6.414;2022-08-16T11:25:04;29.70;82.00
3053;DHT22;1536;51.098;6.414;2022-08-16T11:27:31;29.70;81.40
3053;DHT22;1536;51.098;6.414;2022-08-16T11:29:58;29.80;80.20
3053;DHT22;1536;51.098;6.414;2022-08-16T11:32:27;29.80;80.50
3053;DHT22;1536;51.098;6.414;2022-08-16T11:34:54;29.90;80.70
3053;DHT22;1536;51.098;6.414;2022-08-16T11:37:21;29.90;80.10
3053;DHT22;1536;51.098;6.414;2022-08-16T11:39:49;29.90;79.50
3053;DHT22;1536;51.098;6.414;2022-08-16T11:42:17;29.90;78.30
3053;DHT22;1536;51.098;6.414;2022-08-16T11:44:43;29.90;77.50
3053;DHT22;1536;51.098;6.414;2022-08-16T11:47:12;30.00;77.20
3053;DHT22;1536;51.098;6.414;2022-08-16T11:49:39;30.00;76.90
3053;DHT22;1536;51.098;6.414;2022-08-16T11:52:06;30.00;76.00
3053;DHT22;1536;51.098;6.414;2022-08-16T11:54:32;30.10;75.70
3053;DHT22;1536;51.098;6.414;2022-08-16T11:57:01;30.10;75.20
3053;DHT22;1536;51.098;6.414;2022-08-16T11:59:28;30.20;75.20
3053;DHT22;1536;51.098;6.414;2022-08-16T12:01:55;30.20;76.00
3053;DHT22;1536;51.098;6.414;2022-08-16T12:04:22;30.20;75.80
3053;DHT22;1536;51.098;6.414;2022-08-16T12:06:50;30.10;76.00
3053;DHT22;1536;51.098;6.414;2022-08-16T12:09:17;30.00;76.10
3053;DHT22;1536;51.098;6.414;2022-08-16T12:11:44;30.00;76.40
3053;DHT22;1536;51.098;6.414;2022-08-16T12:14:12;29.80;76.70
3053;DHT22;1536;51.098;6.414;2022-08-16T12:16:39;29.70;76.90
3053;DHT22;1536;51.098;6.414;2022-08-16T12:19:07;29.70;77.10
3053;DHT22;1536;51.098;6.414;2022-08-16T12:21:34;29.60;77.40
3053;DHT22;1536;51.098;6.414;2022-08-16T12:24:01;29.60;77.30
3053;DHT22;1536;51.098;6.414;2022-08-16T12:26:30;29.50;76.80
3053;DHT22;1536;51.098;6.414;2022-08-16T12:28:57;29.50;76.80
3053;DHT22;1536;51.098;6.414;2022-08-16T12:31:27;29.50;76.80
3053;DHT22;1536;51.098;6.414;2022-08-16T12:33:54;29.50;76.20
3053;DHT22;1536;51.098;6.414;2022-08-16T12:36:21;29.50;76.30
3053;DHT22;1536;51.098;6.414;2022-08-16T12:38:49;29.60;76.40
3053;DHT22;1536;51.098;6.414;2022-08-16T12:41:16;29.60;76.60
3053;DHT22;1536;51.098;6.414;2022-08-16T12:43:43;29.70;76.70
3053;DHT22;1536;51.098;6.414;2022-08-16T12:46:10;29.80;76.50
3053;DHT22;1536;51.098;6.414;2022-08-16T12:48:39;29.90;75.90
3053;DHT22;1536;51.098;6.414;2022-08-16T12:51:26;29.90;75.50
3053;DHT22;1536;51.098;6.414;2022-08-16T12:53:55;30.00;73.70
3053;DHT22;1536;51.098;6.414;2022-08-16T12:56:24;30.00;72.60
3053;DHT22;1536;51.098;6.414;2022-08-16T12:58:52;30.10;72.40
3053;DHT22;1536;51.098;6.414;2022-08-16T13:01:25;30.20;71.80
3053;DHT22;1536;51.098;6.414;2022-08-16T13:03:56;30.20;72.30
3053;DHT22;1536;51.098;6.414;2022-08-16T13:06:24;30.30;72.70
3053;DHT22;1536;51.098;6.414;2022-08-16T13:08:51;30.30;72.50
3053;DHT22;1536;51.098;6.414;2022-08-16T13:11:23;30.40;72.90
3053;DHT22;1536;51.098;6.414;2022-08-16T13:13:50;30.40;72.60
3053;DHT22;1536;51.098;6.414;2022-08-16T13:16:17;30.30;72.80
3053;DHT22;1536;51.098;6.414;2022-08-16T13:18:44;30.30;72.50
3053;DHT22;1536;51.098;6.414;2022-08-16T13:21:12;30.30;72.40
3053;DHT22;1536;51.098;6.414;2022-08-16T13:23:39;30.30;72.50
3053;DHT22;1536;51.098;6.414;2022-08-16T13:26:06;30.30;72.80
3053;DHT22;1536;51.098;6.414;2022-08-16T13:28:33;30.30;72.60
3053;DHT22;1536;51.098;6.414;2022-08-16T13:31:01;30.30;71.90
3053;DHT22;1536;51.098;6.414;2022-08-16T13:33:30;30.30;71.40
3053;DHT22;1536;51.098;6.414;2022-08-16T13:36:03;30.40;71.70
3053;DHT22;1536;51.098;6.414;2022-08-16T13:38:33;30.40;72.30
3053;DHT22;1536;51.098;6.414;2022-08-16T13:41:00;30.40;72.60
3053;DHT22;1536;51.098;6.414;2022-08-16T13:43:29;30.40;72.60
3053;DHT22;1536;51.098;6.414;2022-08-16T13:45:57;30.30;72.50
3053;DHT22;1536;51.098;6.414;2022-08-16T13:48:26;30.30;72.50
3053;DHT22;1536;51.098;6.414;2022-08-16T13:50:54;30.20;73.50
3053;DHT22;1536;51.098;6.414;2022-08-16T13:53:21;30.20;72.70
3053;DHT22;1536;51.098;6.414;2022-08-16T13:55:49;30.10;72.30
3053;DHT22;1536;51.098;6.414;2022-08-16T13:58:16;30.10;71.90
3053;DHT22;1536;51.098;6.414;2022-08-16T14:00:43;30.20;71.80
3053;DHT22;1536;51.098;6.414;2022-08-16T14:03:10;30.30;71.50
3053;DHT22;1536;51.098;6.414;2022-08-16T14:05:37;30.40;71.40
3053;DHT22;1536;51.098;6.414;2022-08-16T14:08:05;30.50;71.10
3053;DHT22;1536;51.098;6.414;2022-08-16T14:10:32;30.50;70.40
3053;DHT22;1536;51.098;6.414;2022-08-16T14:13:00;30.50;70.40
3053;DHT22;1536;51.098;6.414;2022-08-16T14:15:28;30.40;70.10
3053;DHT22;1536;51.098;6.414;2022-08-16T14:17:55;30.30;69.70
3053;DHT22;1536;51.098;6.414;2022-08-16T14:20:22;30.20;70.10
3053;DHT22;1536;51.098;6.414;2022-08-16T14:22:50;30.10;70.60
3053;DHT22;1536;51.098;6.414;2022-08-16T14:25:19;30.10;71.10
3053;DHT22;1536;51.098;6.414;2022-08-16T14:27:46;30.00;70.90
3053;DHT22;1536;51.098;6.414;2022-08-16T14:30:16;30.00;70.70
3053;DHT22;1536;51.098;6.414;2022-08-16T14:32:44;30.00;71.30
3053;DHT22;1536;51.098;6.414;2022-08-16T14:35:13;30.00;72.00
3053;DHT22;1536;51.098;6.414;2022-08-16T14:37:41;30.00;72.80
3053;DHT22;1536;51.098;6.414;2022-08-16T14:40:10;30.10;72.40
3053;DHT22;1536;51.098;6.414;2022-08-16T14:42:37;30.30;70.50
3053;DHT22;1536;51.098;6.414;2022-08-16T14:45:05;30.40;70.50
3053;DHT22;1536;51.098;6.414;2022-08-16T14:47:34;30.50;70.70
3053;DHT22;1536;51.098;6.414;2022-08-16T14:50:03;30.50;70.50
3053;DHT22;1536;51.098;6.414;2022-08-16T14:52:30;30.50;70.70
3053;DHT22;1536;51.098;6.414;2022-08-16T14:54:57;30.50;70.60
3053;DHT22;1536;51.098;6.414;2022-08-16T14:57:24;30.50;69.80
3053;DHT22;1536;51.098;6.414;2022-08-16T14:59:50;30.60;69.20
3053;DHT22;1536;51.098;6.414;2022-08-16T15:02:21;30.50;69.50
3053;DHT22;1536;51.098;6.414;2022-08-16T15:04:50;30.50;69.30
3053;DHT22;1536;51.098;6.414;2022-08-16T15:07:18;30.50;69.00
3053;DHT22;1536;51.098;6.414;2022-08-16T15:09:45;30.50;68.80
3053;DHT22;1536;51.098;6.414;2022-08-16T15:12:15;30.40;68.50
3053;DHT22;1536;51.098;6.414;2022-08-16T15:14:42;30.40;69.20
3053;DHT22;1536;51.098;6.414;2022-08-16T15:17:09;30.40;69.80
3053;DHT22;1536;51.098;6.414;2022-08-16T15:19:37;30.30;69.70
3053;DHT22;1536;51.098;6.414;2022-08-16T15:22:12;30.30;69.90
3053;DHT22;1536;51.098;6.414;2022-08-16T15:24:40;30.30;69.50
3053;DHT22;1536;51.098;6.414;2022-08-16T15:27:06;30.20;69.10
3053;DHT22;1536;51.098;6.414;2022-08-16T15:29:33;30.30;69.00
3053;DHT22;1536;51.098;6.414;2022-08-16T15:32:00;30.30;68.80
3053;DHT22;1536;51.098;6.414;2022-08-16T15:34:27;30.30;68.90
3053;DHT22;1536;51.098;6.414;2022-08-16T15:36:54;30.30;69.70
3053;DHT22;1536;51.098;6.414;2022-08-16T15:39:22;30.20;69.70
3053;DHT22;1536;51.098;6.414;2022-08-16T15:42:00;30.20;69.70
3053;DHT22;1536;51.098;6.414;2022-08-16T15:44:28;30.20;70.00
3053;DHT22;1536;51.098;6.414;2022-08-16T15:47:01;30.20;70.40
3053;DHT22;1536;51.098;6.414;2022-08-16T15:49:31;30.20;70.90
3053;DHT22;1536;51.098;6.414;2022-08-16T15:51:59;30.10;71.40
3053;DHT22;1536;51.098;6.414;2022-08-16T15:54:27;30.10;72.10
3053;DHT22;1536;51.098;6.414;2022-08-16T15:56:54;30.20;72.60
3053;DHT22;1536;51.098;6.414;2022-08-16T15:59:21;30.20;72.10
3053;DHT22;1536;51.098;6.414;2022-08-16T16:01:49;30.30;71.30
3053;DHT22;1536;51.098;6.414;2022-08-16T16:04:16;30.30;70.80
3053;DHT22;1536;51.098;6.414;2022-08-16T16:06:43;30.30;70.80
3053;DHT22;1536;51.098;6.414;2022-08-16T16:09:14;30.30;71.40